sensor_id;sensor_type;location;lat;lon;timestamp;P1;durP1;ratioP1;P2;durP2;ratioP2
21927;SDS011;11128;51.096;17.190;2024-01-30T00:03:07;8.15;;;4.30;;
21927;SDS011;11128;51.096;17.190;2024-01-30T00:08:09;14.10;;;5.38;;
21927;SDS011;11128;51.096;17.190;2024-01-30T00:13:10;12.93;;;5.32;;
21927;SDS011;11128;51.096;17.190;2024-01-30T00:18:11;10.75;;;5.97;;
21927;SDS011;11128;51.096;17.190;2024-01-30T00:23:12;14.82;;;5.78;;
21927;SDS011;11128;51.096;17.190;2024-01-30T00:28:14;19.88;;;6.70;;
21927;SDS011;11128;51.096;17.190;2024-01-30T00:33:15;13.50;;;6.15;;
21927;SDS011;11128;51.096;17.190;2024-01-30T00:38:16;13.57;;;6.28;;
21927;SDS011;11128;51.096;17.190;2024-01-30T00:43:18;14.40;;;6.60;;
21927;SDS011;11128;51.096;17.190;2024-01-30T00:48:20;14.82;;;7.35;;
21927;SDS011;11128;51.096;17.190;2024-01-30T00:53:21;17.48;;;7.63;;
21927;SDS011;11128;51.096;17.190;2024-01-30T00:58:22;15.40;;;7.13;;
21927;SDS011;11128;51.096;17.190;2024-01-30T01:03:24;10.23;;;5.22;;
21927;SDS011;11128;51.096;17.190;2024-01-30T01:08:25;8.50;;;5.10;;
21927;SDS011;11128;51.096;17.190;2024-01-30T01:13:26;10.25;;;4.88;;
21927;SDS011;11128;51.096;17.190;2024-01-30T01:18:27;12.02;;;4.07;;
21927;SDS011;11128;51.096;17.190;2024-01-30T01:23:28;9.35;;;4.70;;
21927;SDS011;11128;51.096;17.190;2024-01-30T01:28:30;7.60;;;4.57;;
21927;SDS011;11128;51.096;17.190;2024-01-30T01:33:36;12.73;;;4.63;;
21927;SDS011;11128;51.096;17.190;2024-01-30T01:38:38;10.07;;;5.18;;
21927;SDS011;11128;51.096;17.190;2024-01-30T01:43:39;17.15;;;7.70;;
21927;SDS011;11128;51.096;17.190;2024-01-30T01:48:41;14.63;;;6.60;;
21927;SDS011;11128;51.096;17.190;2024-01-30T01:53:43;11.15;;;5.07;;
21927;SDS011;11128;51.096;17.190;2024-01-30T01:58:45;10.30;;;5.03;;
21927;SDS011;11128;51.096;17.190;2024-01-30T02:03:48;12.77;;;5.43;;
21927;SDS011;11128;51.096;17.190;2024-01-30T02:08:49;11.80;;;5.32;;
21927;SDS011;11128;51.096;17.190;2024-01-30T02:13:50;12.60;;;6.32;;
21927;SDS011;11128;51.096;17.190;2024-01-30T02:18:53;15.25;;;6.07;;
21927;SDS011;11128;51.096;17.190;2024-01-30T02:23:54;17.50;;;6.10;;
21927;SDS011;11128;51.096;17.190;2024-01-30T02:28:57;16.92;;;6.20;;
21927;SDS011;11128;51.096;17.190;2024-01-30T02:33:59;15.98;;;6.25;;
21927;SDS011;11128;51.096;17.190;2024-01-30T02:39:00;10.38;;;5.20;;
21927;SDS011;11128;51.096;17.190;2024-01-30T02:44:02;17.45;;;6.50;;
21927;SDS011;11128;51.096;17.190;2024-01-30T02:49:03;15.10;;;7.00;;
21927;SDS011;11128;51.096;17.190;2024-01-30T02:54:05;19.33;;;6.53;;
21927;SDS011;11128;51.096;17.190;2024-01-30T02:59:06;18.42;;;7.53;;
21927;SDS011;11128;51.096;17.190;2024-01-30T03:04:07;14.80;;;6.70;;
21927;SDS011;11128;51.096;17.190;2024-01-30T03:09:08;20.48;;;8.27;;
21927;SDS011;11128;51.096;17.190;2024-01-30T03:14:10;26.13;;;8.60;;
21927;SDS011;11128;51.096;17.190;2024-01-30T03:19:11;20.02;;;8.48;;
21927;SDS011;11128;51.096;17.190;2024-01-30T03:24:13;18.52;;;8.00;;
21927;SDS011;11128;51.096;17.190;2024-01-30T03:29:14;21.48;;;8.25;;
21927;SDS011;11128;51.096;17.190;2024-01-30T03:34:16;23.92;;;8.38;;
21927;SDS011;11128;51.096;17.190;2024-01-30T03:39:17;23.00;;;8.95;;
21927;SDS011;11128;51.096;17.190;2024-01-30T03:44:18;20.05;;;8.27;;
21927;SDS011;11128;51.096;17.190;2024-01-30T03:49:19;20.27;;;8.77;;
21927;SDS011;11128;51.096;17.190;2024-01-30T03:54:21;21.40;;;8.77;;
21927;SDS011;11128;51.096;17.190;2024-01-30T03:59:22;21.77;;;8.88;;
21927;SDS011;11128;51.096;17.190;2024-01-30T04:04:24;21.25;;;9.73;;
21927;SDS011;11128;51.096;17.190;2024-01-30T04:09:25;27.85;;;10.13;;
21927;SDS011;11128;51.096;17.190;2024-01-30T04:14:29;24.48;;;10.50;;
21927;SDS011;11128;51.096;17.190;2024-01-30T04:19:30;23.48;;;10.13;;
21927;SDS011;11128;51.096;17.190;2024-01-30T04:24:32;23.20;;;9.38;;
21927;SDS011;11128;51.096;17.190;2024-01-30T04:29:33;18.55;;;8.85;;
21927;SDS011;11128;51.096;17.190;2024-01-30T04:34:35;24.17;;;9.48;;
21927;SDS011;11128;51.096;17.190;2024-01-30T04:39:37;27.30;;;9.68;;
21927;SDS011;11128;51.096;17.190;2024-01-30T04:44:38;24.83;;;9.35;;
21927;SDS011;11128;51.096;17.190;2024-01-30T04:49:40;23.20;;;9.80;;
21927;SDS011;11128;51.096;17.190;2024-01-30T04:54:42;21.42;;;9.48;;
21927;SDS011;11128;51.096;17.190;2024-01-30T04:59:44;19.98;;;10.43;;
21927;SDS011;11128;51.096;17.190;2024-01-30T05:04:45;24.73;;;9.35;;
21927;SDS011;11128;51.096;17.190;2024-01-30T05:09:46;20.73;;;8.98;;
21927;SDS011;11128;51.096;17.190;2024-01-30T05:14:48;21.73;;;8.95;;
21927;SDS011;11128;51.096;17.190;2024-01-30T05:19:49;25.10;;;9.75;;
21927;SDS011;11128;51.096;17.190;2024-01-30T05:24:50;22.73;;;8.93;;
21927;SDS011;11128;51.096;17.190;2024-01-30T05:29:51;22.65;;;9.35;;
21927;SDS011;11128;51.096;17.190;2024-01-30T05:34:53;18.50;;;8.32;;
21927;SDS011;11128;51.096;17.190;2024-01-30T05:39:54;15.70;;;7.30;;
21927;SDS011;11128;51.096;17.190;2024-01-30T05:44:55;20.20;;;9.02;;
21927;SDS011;11128;51.096;17.190;2024-01-30T05:49:56;21.83;;;9.48;;
21927;SDS011;11128;51.096;17.190;2024-01-30T05:54:58;22.58;;;9.00;;
21927;SDS011;11128;51.096;17.190;2024-01-30T05:59:59;25.77;;;9.40;;
21927;SDS011;11128;51.096;17.190;2024-01-30T06:05:00;22.48;;;8.70;;
21927;SDS011;11128;51.096;17.190;2024-01-30T06:10:04;16.17;;;7.95;;
21927;SDS011;11128;51.096;17.190;2024-01-30T06:15:06;17.63;;;8.02;;
21927;SDS011;11128;51.096;17.190;2024-01-30T06:20:07;21.45;;;9.13;;
21927;SDS011;11128;51.096;17.190;2024-01-30T06:25:08;30.67;;;10.27;;
21927;SDS011;11128;51.096;17.190;2024-01-30T06:30:11;20.92;;;8.77;;
21927;SDS011;11128;51.096;17.190;2024-01-30T06:35:13;27.80;;;9.75;;
21927;SDS011;11128;51.096;17.190;2024-01-30T06:40:14;21.13;;;9.23;;
21927;SDS011;11128;51.096;17.190;2024-01-30T06:45:15;19.50;;;8.32;;
21927;SDS011;11128;51.096;17.190;2024-01-30T06:50:16;18.70;;;9.30;;
21927;SDS011;11128;51.096;17.190;2024-01-30T06:55:18;18.17;;;8.68;;
21927;SDS011;11128;51.096;17.190;2024-01-30T07:00:19;41.40;;;14.70;;
21927;SDS011;11128;51.096;17.190;2024-01-30T07:05:21;50.38;;;18.13;;
21927;SDS011;11128;51.096;17.190;2024-01-30T07:10:22;28.55;;;12.88;;
21927;SDS011;11128;51.096;17.190;2024-01-30T07:15:24;24.65;;;10.80;;
21927;SDS011;11128;51.096;17.190;2024-01-30T07:20:25;24.75;;;9.77;;
21927;SDS011;11128;51.096;17.190;2024-01-30T07:25:27;20.50;;;10.10;;
21927;SDS011;11128;51.096;17.190;2024-01-30T07:30:30;21.20;;;10.30;;
21927;SDS011;11128;51.096;17.190;2024-01-30T07:35:31;13.27;;;6.43;;
21927;SDS011;11128;51.096;17.190;2024-01-30T07:40:32;14.90;;;6.13;;
21927;SDS011;11128;51.096;17.190;2024-01-30T07:45:34;7.03;;;5.03;;
21927;SDS011;11128;51.096;17.190;2024-01-30T07:50:35;8.23;;;3.63;;
21927;SDS011;11128;51.096;17.190;2024-01-30T07:55:36;6.07;;;3.45;;
21927;SDS011;11128;51.096;17.190;2024-01-30T08:00:38;5.38;;;3.70;;
21927;SDS011;11128;51.096;17.190;2024-01-30T08:05:39;9.38;;;3.90;;
21927;SDS011;11128;51.096;17.190;2024-01-30T08:10:41;8.55;;;3.35;;
21927;SDS011;11128;51.096;17.190;2024-01-30T08:15:42;6.25;;;2.80;;
21927;SDS011;11128;51.096;17.190;2024-01-30T08:20:43;7.90;;;3.47;;
21927;SDS011;11128;51.096;17.190;2024-01-30T08:25:45;5.38;;;2.90;;
21927;SDS011;11128;51.096;17.190;2024-01-30T08:30:46;6.22;;;2.85;;
21927;SDS011;11128;51.096;17.190;2024-01-30T08:35:47;8.52;;;3.40;;
21927;SDS011;11128;51.096;17.190;2024-01-30T08:40:48;10.70;;;3.70;;
21927;SDS011;11128;51.096;17.190;2024-01-30T08:45:50;9.25;;;3.00;;
21927;SDS011;11128;51.096;17.190;2024-01-30T08:50:51;11.05;;;3.53;;
21927;SDS011;11128;51.096;17.190;2024-01-30T08:55:52;8.27;;;2.97;;
21927;SDS011;11128;51.096;17.190;2024-01-30T09:00:54;6.38;;;2.55;;
21927;SDS011;11128;51.096;17.190;2024-01-30T09:05:55;4.95;;;2.85;;
21927;SDS011;11128;51.096;17.190;2024-01-30T09:10:57;5.05;;;2.63;;
21927;SDS011;11128;51.096;17.190;2024-01-30T09:15:58;5.72;;;2.30;;
21927;SDS011;11128;51.096;17.190;2024-01-30T09:20:59;4.53;;;2.63;;
21927;SDS011;11128;51.096;17.190;2024-01-30T09:26:00;3.97;;;2.42;;
21927;SDS011;11128;51.096;17.190;2024-01-30T09:31:02;8.63;;;3.22;;
21927;SDS011;11128;51.096;17.190;2024-01-30T09:36:03;4.85;;;2.65;;
21927;SDS011;11128;51.096;17.190;2024-01-30T09:41:06;5.05;;;2.55;;
21927;SDS011;11128;51.096;17.190;2024-01-30T09:46:11;6.63;;;2.47;;
21927;SDS011;11128;51.096;17.190;2024-01-30T09:51:15;6.43;;;2.60;;
21927;SDS011;11128;51.096;17.190;2024-01-30T09:56:18;5.18;;;2.60;;
21927;SDS011;11128;51.096;17.190;2024-01-30T10:01:20;5.75;;;2.70;;
21927;SDS011;11128;51.096;17.190;2024-01-30T10:06:22;6.57;;;2.38;;
21927;SDS011;11128;51.096;17.190;2024-01-30T10:11:25;5.63;;;2.65;;
21927;SDS011;11128;51.096;17.190;2024-01-30T10:16:27;5.40;;;2.58;;
21927;SDS011;11128;51.096;17.190;2024-01-30T10:21:32;6.20;;;2.47;;
21927;SDS011;11128;51.096;17.190;2024-01-30T10:26:33;6.32;;;2.28;;
21927;SDS011;11128;51.096;17.190;2024-01-30T10:31:35;5.78;;;2.47;;
21927;SDS011;11128;51.096;17.190;2024-01-30T10:36:39;4.80;;;2.53;;
21927;SDS011;11128;51.096;17.190;2024-01-30T10:41:44;4.97;;;2.40;;
21927;SDS011;11128;51.096;17.190;2024-01-30T10:46:50;8.27;;;2.60;;
21927;SDS011;11128;51.096;17.190;2024-01-30T10:51:55;7.10;;;2.72;;
21927;SDS011;11128;51.096;17.190;2024-01-30T10:56:57;7.13;;;2.92;;
21927;SDS011;11128;51.096;17.190;2024-01-30T11:02:02;6.05;;;2.90;;
21927;SDS011;11128;51.096;17.190;2024-01-30T11:07:17;3.60;;;2.13;;
21927;SDS011;11128;51.096;17.190;2024-01-30T11:12:23;5.95;;;2.60;;
21927;SDS011;11128;51.096;17.190;2024-01-30T11:17:27;8.23;;;2.88;;
21927;SDS011;11128;51.096;17.190;2024-01-30T11:22:30;5.60;;;2.65;;
21927;SDS011;11128;51.096;17.190;2024-01-30T11:27:31;6.13;;;2.83;;
21927;SDS011;11128;51.096;17.190;2024-01-30T11:32:33;5.45;;;2.58;;
21927;SDS011;11128;51.096;17.190;2024-01-30T11:37:35;5.15;;;2.88;;
21927;SDS011;11128;51.096;17.190;2024-01-30T11:42:39;4.68;;;2.33;;
21927;SDS011;11128;51.096;17.190;2024-01-30T11:47:41;10.90;;;3.53;;
21927;SDS011;11128;51.096;17.190;2024-01-30T11:52:42;5.90;;;2.25;;
21927;SDS011;11128;51.096;17.190;2024-01-30T11:57:44;6.03;;;2.55;;
21927;SDS011;11128;51.096;17.190;2024-01-30T12:02:49;6.65;;;2.78;;
21927;SDS011;11128;51.096;17.190;2024-01-30T12:07:57;5.18;;;2.35;;
21927;SDS011;11128;51.096;17.190;2024-01-30T12:13:01;8.07;;;2.97;;
21927;SDS011;11128;51.096;17.190;2024-01-30T12:18:04;6.45;;;3.03;;
21927;SDS011;11128;51.096;17.190;2024-01-30T12:23:09;5.65;;;2.63;;
21927;SDS011;11128;51.096;17.190;2024-01-30T12:28:13;4.07;;;2.45;;
21927;SDS011;11128;51.096;17.190;2024-01-30T12:33:16;5.28;;;2.25;;
21927;SDS011;11128;51.096;17.190;2024-01-30T12:38:18;5.05;;;2.90;;
21927;SDS011;11128;51.096;17.190;2024-01-30T12:43:20;5.57;;;2.85;;
21927;SDS011;11128;51.096;17.190;2024-01-30T12:48:22;6.03;;;2.75;;
21927;SDS011;11128;51.096;17.190;2024-01-30T12:53:23;5.30;;;2.78;;
21927;SDS011;11128;51.096;17.190;2024-01-30T12:58:24;6.18;;;3.17;;
21927;SDS011;11128;51.096;17.190;2024-01-30T13:03:26;6.88;;;3.05;;
21927;SDS011;11128;51.096;17.190;2024-01-30T13:08:27;4.85;;;2.40;;
21927;SDS011;11128;51.096;17.190;2024-01-30T13:13:29;4.40;;;2.22;;
21927;SDS011;11128;51.096;17.190;2024-01-30T13:18:30;9.93;;;3.30;;
21927;SDS011;11128;51.096;17.190;2024-01-30T13:23:32;3.55;;;2.58;;
21927;SDS011;11128;51.096;17.190;2024-01-30T13:28:33;5.18;;;2.97;;
21927;SDS011;11128;51.096;17.190;2024-01-30T13:33:35;7.45;;;3.38;;
21927;SDS011;11128;51.096;17.190;2024-01-30T13:38:36;4.72;;;2.97;;
21927;SDS011;11128;51.096;17.190;2024-01-30T13:43:38;8.13;;;2.88;;
21927;SDS011;11128;51.096;17.190;2024-01-30T13:48:39;5.07;;;3.00;;
21927;SDS011;11128;51.096;17.190;2024-01-30T13:53:41;5.53;;;2.83;;
21927;SDS011;11128;51.096;17.190;2024-01-30T13:58:42;6.95;;;3.42;;
21927;SDS011;11128;51.096;17.190;2024-01-30T14:03:44;8.15;;;4.22;;
21927;SDS011;11128;51.096;17.190;2024-01-30T14:08:45;8.52;;;3.75;;
21927;SDS011;11128;51.096;17.190;2024-01-30T14:13:46;7.63;;;3.25;;
21927;SDS011;11128;51.096;17.190;2024-01-30T14:18:48;12.00;;;3.80;;
21927;SDS011;11128;51.096;17.190;2024-01-30T14:23:49;6.15;;;3.33;;
21927;SDS011;11128;51.096;17.190;2024-01-30T14:28:50;10.15;;;3.95;;
21927;SDS011;11128;51.096;17.190;2024-01-30T14:33:52;9.35;;;3.80;;
21927;SDS011;11128;51.096;17.190;2024-01-30T14:38:53;6.63;;;3.53;;
21927;SDS011;11128;51.096;17.190;2024-01-30T14:43:55;14.85;;;5.00;;
21927;SDS011;11128;51.096;17.190;2024-01-30T14:48:58;8.63;;;4.15;;
21927;SDS011;11128;51.096;17.190;2024-01-30T14:54:00;10.70;;;4.15;;
21927;SDS011;11128;51.096;17.190;2024-01-30T14:59:02;13.75;;;4.55;;
21927;SDS011;11128;51.096;17.190;2024-01-30T15:04:03;9.27;;;4.15;;
21927;SDS011;11128;51.096;17.190;2024-01-30T15:09:06;9.43;;;4.50;;
21927;SDS011;11128;51.096;17.190;2024-01-30T15:14:07;8.35;;;4.20;;
21927;SDS011;11128;51.096;17.190;2024-01-30T15:19:09;10.68;;;4.15;;
21927;SDS011;11128;51.096;17.190;2024-01-30T15:24:10;12.23;;;4.88;;
21927;SDS011;11128;51.096;17.190;2024-01-30T15:29:15;9.98;;;4.70;;
21927;SDS011;11128;51.096;17.190;2024-01-30T15:34:16;11.82;;;4.70;;
21927;SDS011;11128;51.096;17.190;2024-01-30T15:39:18;12.30;;;4.80;;
21927;SDS011;11128;51.096;17.190;2024-01-30T15:44:20;15.30;;;5.85;;
21927;SDS011;11128;51.096;17.190;2024-01-30T15:49:22;10.82;;;5.13;;
21927;SDS011;11128;51.096;17.190;2024-01-30T15:54:23;12.25;;;5.57;;
21927;SDS011;11128;51.096;17.190;2024-01-30T15:59:25;15.23;;;5.45;;
21927;SDS011;11128;51.096;17.190;2024-01-30T16:04:27;17.55;;;5.93;;
21927;SDS011;11128;51.096;17.190;2024-01-30T16:09:29;15.32;;;7.28;;
21927;SDS011;11128;51.096;17.190;2024-01-30T16:14:31;15.05;;;6.25;;
21927;SDS011;11128;51.096;17.190;2024-01-30T16:19:32;17.50;;;5.80;;
21927;SDS011;11128;51.096;17.190;2024-01-30T16:24:33;13.77;;;6.43;;
21927;SDS011;11128;51.096;17.190;2024-01-30T16:29:35;13.07;;;6.10;;
21927;SDS011;11128;51.096;17.190;2024-01-30T16:34:36;12.85;;;5.70;;
21927;SDS011;11128;51.096;17.190;2024-01-30T16:39:38;15.90;;;6.65;;
21927;SDS011;11128;51.096;17.190;2024-01-30T16:44:39;14.13;;;6.55;;
21927;SDS011;11128;51.096;17.190;2024-01-30T16:49:40;16.92;;;7.10;;
21927;SDS011;11128;51.096;17.190;2024-01-30T16:54:42;17.38;;;6.28;;
21927;SDS011;11128;51.096;17.190;2024-01-30T16:59:43;15.93;;;6.57;;
21927;SDS011;11128;51.096;17.190;2024-01-30T17:04:45;15.52;;;7.35;;
21927;SDS011;11128;51.096;17.190;2024-01-30T17:09:46;17.50;;;7.47;;
21927;SDS011;11128;51.096;17.190;2024-01-30T17:14:48;27.45;;;10.18;;
21927;SDS011;11128;51.096;17.190;2024-01-30T17:19:50;31.65;;;10.98;;
21927;SDS011;11128;51.096;17.190;2024-01-30T17:24:51;19.08;;;7.15;;
21927;SDS011;11128;51.096;17.190;2024-01-30T17:29:54;24.80;;;8.18;;
21927;SDS011;11128;51.096;17.190;2024-01-30T17:34:55;19.40;;;7.70;;
21927;SDS011;11128;51.096;17.190;2024-01-30T17:39:56;15.23;;;7.03;;
21927;SDS011;11128;51.096;17.190;2024-01-30T17:44:58;19.45;;;7.68;;
21927;SDS011;11128;51.096;17.190;2024-01-30T17:50:00;16.25;;;8.50;;
21927;SDS011;11128;51.096;17.190;2024-01-30T17:55:03;21.98;;;8.07;;
21927;SDS011;11128;51.096;17.190;2024-01-30T18:00:05;14.55;;;7.57;;
21927;SDS011;11128;51.096;17.190;2024-01-30T18:05:07;17.83;;;8.25;;
21927;SDS011;11128;51.096;17.190;2024-01-30T18:10:11;21.38;;;8.82;;
21927;SDS011;11128;51.096;17.190;2024-01-30T18:15:19;19.15;;;8.95;;
21927;SDS011;11128;51.096;17.190;2024-01-30T18:20:20;18.70;;;8.38;;
21927;SDS011;11128;51.096;17.190;2024-01-30T18:25:22;20.70;;;7.95;;
21927;SDS011;11128;51.096;17.190;2024-01-30T18:30:23;17.40;;;8.20;;
21927;SDS011;11128;51.096;17.190;2024-01-30T18:35:24;17.25;;;7.80;;
21927;SDS011;11128;51.096;17.190;2024-01-30T18:40:26;21.42;;;9.10;;
21927;SDS011;11128;51.096;17.190;2024-01-30T18:45:27;25.15;;;9.32;;
21927;SDS011;11128;51.096;17.190;2024-01-30T18:50:29;18.58;;;8.18;;
21927;SDS011;11128;51.096;17.190;2024-01-30T18:55:30;23.88;;;9.93;;
21927;SDS011;11128;51.096;17.190;2024-01-30T19:00:32;20.48;;;8.82;;
21927;SDS011;11128;51.096;17.190;2024-01-30T19:05:36;21.88;;;8.80;;
21927;SDS011;11128;51.096;17.190;2024-01-30T19:10:38;19.23;;;8.32;;
21927;SDS011;11128;51.096;17.190;2024-01-30T19:15:40;19.15;;;7.65;;
21927;SDS011;11128;51.096;17.190;2024-01-30T19:20:44;20.85;;;8.32;;
21927;SDS011;11128;51.096;17.190;2024-01-30T19:25:45;16.45;;;7.28;;
21927;SDS011;11128;51.096;17.190;2024-01-30T19:30:47;16.90;;;7.95;;
21927;SDS011;11128;51.096;17.190;2024-01-30T19:35:49;18.08;;;7.95;;
21927;SDS011;11128;51.096;17.190;2024-01-30T19:40:50;18.35;;;7.57;;
21927;SDS011;11128;51.096;17.190;2024-01-30T19:45:53;16.58;;;8.38;;
21927;SDS011;11128;51.096;17.190;2024-01-30T19:50:54;17.92;;;8.25;;
21927;SDS011;11128;51.096;17.190;2024-01-30T19:55:57;18.38;;;8.13;;
21927;SDS011;11128;51.096;17.190;2024-01-30T20:00:58;19.50;;;8.50;;
21927;SDS011;11128;51.096;17.190;2024-01-30T20:05:59;17.90;;;7.93;;
21927;SDS011;11128;51.096;17.190;2024-01-30T20:11:01;23.48;;;9.57;;
21927;SDS011;11128;51.096;17.190;2024-01-30T20:16:03;22.08;;;8.35;;
21927;SDS011;11128;51.096;17.190;2024-01-30T20:21:07;23.33;;;9.70;;
21927;SDS011;11128;51.096;17.190;2024-01-30T20:26:09;22.85;;;9.70;;
21927;SDS011;11128;51.096;17.190;2024-01-30T20:31:11;23.13;;;9.63;;
21927;SDS011;11128;51.096;17.190;2024-01-30T20:36:12;19.20;;;8.50;;
21927;SDS011;11128;51.096;17.190;2024-01-30T20:41:16;18.13;;;9.65;;
21927;SDS011;11128;51.096;17.190;2024-01-30T20:46:17;20.25;;;8.20;;
21927;SDS011;11128;51.096;17.190;2024-01-30T20:51:18;19.10;;;8.73;;
21927;SDS011;11128;51.096;17.190;2024-01-30T20:56:20;20.73;;;8.30;;
21927;SDS011;11128;51.096;17.190;2024-01-30T21:01:21;24.55;;;9.38;;
21927;SDS011;11128;51.096;17.190;2024-01-30T21:06:22;21.70;;;9.20;;
21927;SDS011;11128;51.096;17.190;2024-01-30T21:11:24;23.25;;;9.50;;
21927;SDS011;11128;51.096;17.190;2024-01-30T21:16:25;18.70;;;9.60;;
21927;SDS011;11128;51.096;17.190;2024-01-30T21:21:27;18.83;;;9.07;;
21927;SDS011;11128;51.096;17.190;2024-01-30T21:26:29;20.63;;;8.85;;
21927;SDS011;11128;51.096;17.190;2024-01-30T21:31:30;18.75;;;8.27;;
21927;SDS011;11128;51.096;17.190;2024-01-30T21:36:32;17.02;;;8.18;;
21927;SDS011;11128;51.096;17.190;2024-01-30T21:41:33;17.80;;;8.55;;
21927;SDS011;11128;51.096;17.190;2024-01-30T21:46:34;23.00;;;9.57;;
21927;SDS011;11128;51.096;17.190;2024-01-30T21:51:35;23.38;;;9.40;;
21927;SDS011;11128;51.096;17.190;2024-01-30T21:56:37;27.08;;;11.93;;
21927;SDS011;11128;51.096;17.190;2024-01-30T22:01:38;30.98;;;11.75;;
21927;SDS011;11128;51.096;17.190;2024-01-30T22:06:39;37.13;;;14.63;;
21927;SDS011;11128;51.096;17.190;2024-01-30T22:11:41;45.00;;;17.17;;
21927;SDS011;11128;51.096;17.190;2024-01-30T22:16:43;35.70;;;15.40;;
21927;SDS011;11128;51.096;17.190;2024-01-30T22:21:44;38.13;;;16.30;;
21927;SDS011;11128;51.096;17.190;2024-01-30T22:26:46;42.58;;;17.65;;
21927;SDS011;11128;51.096;17.190;2024-01-30T22:31:47;59.08;;;21.83;;
21927;SDS011;11128;51.096;17.190;2024-01-30T22:36:48;48.30;;;19.75;;
21927;SDS011;11128;51.096;17.190;2024-01-30T22:41:49;45.03;;;17.10;;
21927;SDS011;11128;51.096;17.190;2024-01-30T22:46:50;40.97;;;17.08;;
21927;SDS011;11128;51.096;17.190;2024-01-30T22:51:52;44.88;;;18.73;;
21927;SDS011;11128;51.096;17.190;2024-01-30T22:56:53;44.13;;;19.65;;
21927;SDS011;11128;51.096;17.190;2024-01-30T23:01:54;60.97;;;24.00;;
21927;SDS011;11128;51.096;17.190;2024-01-30T23:06:55;51.88;;;22.17;;
21927;SDS011;11128;51.096;17.190;2024-01-30T23:11:56;57.20;;;22.25;;
21927;SDS011;11128;51.096;17.190;2024-01-30T23:16:59;47.92;;;21.27;;
21927;SDS011;11128;51.096;17.190;2024-01-30T23:22:00;43.40;;;18.02;;
21927;SDS011;11128;51.096;17.190;2024-01-30T23:27:02;38.67;;;16.83;;
21927;SDS011;11128;51.096;17.190;2024-01-30T23:32:05;39.65;;;15.93;;
21927;SDS011;11128;51.096;17.190;2024-01-30T23:37:06;34.42;;;14.00;;
21927;SDS011;11128;51.096;17.190;2024-01-30T23:42:07;40.95;;;15.20;;
21927;SDS011;11128;51.096;17.190;2024-01-30T23:47:10;41.28;;;15.85;;
21927;SDS011;11128;51.096;17.190;2024-01-30T23:52:12;38.80;;;16.55;;
21927;SDS011;11128;51.096;17.190;2024-01-30T23:57:13;36.83;;;16.52;;
